createdAt,value
2019-05-16T00:00:14.384Z,0.00
2019-05-16T00:01:14.378Z,0.00
2019-05-16T00:02:14.361Z,0.00
2019-05-16T00:03:14.355Z,0.00
2019-05-16T00:04:14.358Z,0.00
2019-05-16T00:05:14.327Z,0.00
2019-05-16T00:06:14.330Z,0.00
2019-05-16T00:07:14.311Z,0.00
2019-05-16T00:08:14.301Z,0.00
2019-05-16T00:09:14.314Z,0.00
2019-05-16T00:10:14.280Z,0.00
2019-05-16T00:11:14.263Z,0.00
2019-05-16T00:12:14.262Z,0.00
2019-05-16T00:13:14.247Z,0.00
2019-05-16T00:14:14.231Z,0.00
2019-05-16T00:15:14.236Z,0.00
2019-05-16T00:16:14.214Z,0.00
2019-05-16T00:17:14.202Z,0.00
2019-05-16T00:18:14.192Z,0.00
2019-05-16T00:19:14.184Z,0.00
2019-05-16T00:20:14.178Z,0.00
2019-05-16T00:21:14.165Z,0.00
2019-05-16T00:22:14.142Z,0.00
2019-05-16T00:23:14.136Z,0.00
2019-05-16T00:24:14.120Z,0.00
2019-05-16T00:25:14.117Z,0.00
2019-05-16T00:26:14.106Z,0.00
2019-05-16T00:27:14.093Z,0.00
2019-05-16T00:28:14.082Z,0.00
2019-05-16T00:29:14.067Z,0.00
2019-05-16T00:30:14.053Z,0.00
2019-05-16T00:31:14.054Z,0.00
2019-05-16T00:32:14.032Z,0.00
2019-05-16T00:33:14.026Z,0.00
2019-05-16T00:34:14.010Z,0.00
2019-05-16T00:35:14.005Z,0.00
2019-05-16T00:36:13.989Z,0.00
2019-05-16T00:37:13.992Z,0.00
2019-05-16T00:38:13.975Z,0.00
2019-05-16T00:39:13.955Z,0.00
2019-05-16T00:40:13.944Z,0.00
2019-05-16T00:41:13.935Z,0.00
2019-05-16T00:42:13.937Z,0.00
2019-05-16T00:43:13.918Z,0.00
2019-05-16T00:44:13.912Z,0.00
2019-05-16T00:45:13.897Z,0.00
2019-05-16T00:46:13.888Z,0.00
2019-05-16T00:47:13.882Z,0.00
2019-05-16T00:48:13.858Z,0.00
2019-05-16T00:49:13.853Z,0.00
2019-05-16T00:50:13.841Z,0.00
2019-05-16T00:51:13.830Z,0.00
2019-05-16T00:52:13.862Z,0.00
2019-05-16T00:53:13.816Z,0.00
2019-05-16T00:54:13.796Z,0.00
2019-05-16T00:55:13.785Z,0.00
2019-05-16T00:56:13.776Z,0.00
2019-05-16T00:57:13.759Z,0.00
2019-05-16T00:58:13.762Z,0.00
2019-05-16T00:59:13.743Z,0.00
2019-05-16T01:00:13.733Z,0.00
2019-05-16T01:01:13.720Z,0.00
2019-05-16T01:02:13.710Z,0.00
2019-05-16T01:03:13.704Z,0.00
2019-05-16T01:04:13.684Z,0.00
2019-05-16T01:05:14.639Z,0.00
2019-05-16T01:06:18.599Z,0.00
2019-05-16T01:07:14.654Z,0.00
2019-05-16T01:08:13.638Z,0.00
2019-05-16T01:09:13.640Z,0.00
2019-05-16T01:10:13.620Z,0.00
2019-05-16T01:11:13.610Z,0.00
2019-05-16T01:12:13.593Z,0.00
2019-05-16T01:13:13.589Z,0.00
2019-05-16T01:14:13.582Z,0.00
2019-05-16T01:15:13.560Z,0.00
2019-05-16T01:16:13.551Z,0.00
2019-05-16T01:17:13.548Z,0.00
2019-05-16T01:18:13.535Z,0.00
2019-05-16T01:19:13.540Z,0.00
2019-05-16T01:20:13.508Z,0.00
2019-05-16T01:21:13.498Z,0.00
2019-05-16T01:22:13.497Z,0.00
2019-05-16T01:23:13.476Z,0.00
2019-05-16T01:24:13.466Z,0.00
2019-05-16T01:25:13.465Z,0.00
2019-05-16T01:26:13.442Z,0.00
2019-05-16T01:27:13.433Z,0.00
2019-05-16T01:28:13.419Z,0.00
2019-05-16T01:29:13.411Z,0.00
2019-05-16T01:30:13.402Z,0.00
2019-05-16T01:31:13.410Z,0.00
2019-05-16T01:32:13.377Z,0.00
2019-05-16T01:33:13.369Z,0.00
2019-05-16T01:34:13.356Z,0.00
2019-05-16T01:35:13.343Z,0.00
2019-05-16T01:36:13.373Z,0.00
2019-05-16T01:37:13.319Z,0.00
2019-05-16T01:38:13.314Z,0.00
2019-05-16T01:39:13.300Z,0.00
2019-05-16T01:40:13.284Z,0.00
2019-05-16T01:41:13.272Z,0.00
2019-05-16T01:42:13.275Z,0.00
2019-05-16T01:43:13.249Z,0.00
2019-05-16T01:44:13.237Z,0.00
2019-05-16T01:45:13.243Z,0.00
2019-05-16T01:46:13.241Z,0.00
2019-05-16T01:47:13.205Z,0.00
2019-05-16T01:48:14.888Z,0.00
2019-05-16T01:49:13.183Z,0.00
2019-05-16T01:50:13.172Z,0.00
2019-05-16T01:51:13.160Z,0.00
2019-05-16T01:52:13.167Z,0.00
2019-05-16T01:53:13.144Z,0.00
2019-05-16T01:54:13.138Z,0.00
2019-05-16T01:55:13.117Z,0.00
2019-05-16T01:56:13.113Z,0.00
2019-05-16T01:57:13.172Z,0.00
2019-05-16T01:58:13.085Z,0.00
2019-05-16T01:59:13.081Z,0.00
2019-05-16T02:00:13.068Z,0.00
2019-05-16T02:01:15.577Z,0.00
2019-05-16T02:02:13.062Z,0.00
2019-05-16T02:03:13.029Z,0.00
2019-05-16T02:04:13.284Z,0.00
2019-05-16T02:05:13.013Z,0.00
2019-05-16T02:06:13.004Z,0.00
2019-05-16T02:07:12.990Z,0.00
2019-05-16T02:08:12.991Z,0.00
2019-05-16T02:09:12.962Z,0.00
2019-05-16T02:10:12.954Z,0.00
2019-05-16T02:11:12.941Z,0.00
2019-05-16T02:12:12.945Z,0.00
2019-05-16T02:13:12.924Z,0.00
2019-05-16T02:14:12.918Z,0.00
2019-05-16T02:15:12.903Z,0.00
2019-05-16T02:16:12.886Z,0.00
2019-05-16T02:17:12.876Z,0.00
2019-05-16T02:18:13.017Z,0.00
2019-05-16T02:19:12.855Z,0.00
2019-05-16T02:20:12.848Z,0.00
2019-05-16T02:21:12.831Z,0.00
2019-05-16T02:22:12.821Z,0.00
2019-05-16T02:23:12.822Z,0.00
2019-05-16T02:24:12.805Z,0.00
2019-05-16T02:25:12.795Z,0.00
2019-05-16T02:26:12.777Z,0.00
2019-05-16T02:27:12.769Z,0.00
2019-05-16T02:28:12.764Z,0.00
2019-05-16T02:29:13.759Z,0.00
2019-05-16T02:30:12.944Z,0.00
2019-05-16T02:31:15.414Z,0.00
2019-05-16T02:32:12.729Z,0.00
2019-05-16T02:33:12.716Z,0.00
2019-05-16T02:34:12.697Z,0.00
2019-05-16T02:35:12.684Z,0.00
2019-05-16T02:36:12.675Z,0.00
2019-05-16T02:37:24.043Z,0.00
2019-05-16T02:38:13.657Z,0.00
2019-05-16T02:39:12.636Z,0.00
2019-05-16T02:40:12.633Z,0.00
2019-05-16T02:41:12.621Z,0.00
2019-05-16T02:42:12.612Z,0.00
2019-05-16T02:43:12.715Z,0.00
2019-05-16T02:44:12.591Z,0.00
2019-05-16T02:45:12.575Z,0.00
2019-05-16T02:46:12.585Z,0.00
2019-05-16T02:47:12.551Z,0.00
2019-05-16T02:48:12.562Z,0.00
2019-05-16T02:49:12.530Z,0.00
2019-05-16T02:50:12.771Z,0.00
2019-05-16T02:51:12.502Z,0.00
2019-05-16T02:52:12.504Z,0.00
2019-05-16T02:53:12.948Z,0.00
2019-05-16T02:54:12.485Z,0.00
2019-05-16T02:55:12.464Z,0.00
2019-05-16T02:56:12.645Z,0.00
2019-05-16T02:57:12.453Z,0.00
2019-05-16T02:58:12.434Z,0.00
2019-05-16T02:59:12.420Z,0.00
2019-05-16T03:00:12.664Z,0.00
2019-05-16T03:01:12.392Z,0.00
2019-05-16T03:02:12.381Z,0.00
2019-05-16T03:03:12.561Z,0.00
2019-05-16T03:04:12.366Z,0.00
2019-05-16T03:05:12.825Z,0.00
2019-05-16T03:06:12.348Z,0.00
2019-05-16T03:07:31.638Z,0.00
2019-05-16T03:08:13.368Z,0.00
2019-05-16T03:09:12.312Z,0.00
2019-05-16T03:10:12.292Z,0.00
2019-05-16T03:11:12.281Z,0.00
2019-05-16T03:12:12.277Z,0.00
2019-05-16T03:13:12.267Z,0.00
2019-05-16T03:14:12.267Z,0.00
2019-05-16T03:15:12.250Z,0.00
2019-05-16T03:16:12.230Z,5.62
2019-05-16T03:17:12.224Z,5.62
2019-05-16T03:18:12.215Z,5.62
2019-05-16T03:19:12.209Z,5.62
2019-05-16T03:20:12.198Z,5.62
2019-05-16T03:21:12.173Z,5.62
2019-05-16T03:22:12.163Z,11.25
2019-05-16T03:23:12.152Z,11.25
2019-05-16T03:24:12.141Z,11.25
2019-05-16T03:25:12.191Z,11.25
2019-05-16T03:26:12.173Z,11.25
2019-05-16T03:27:12.114Z,16.88
2019-05-16T03:28:12.102Z,11.25
2019-05-16T03:29:12.107Z,16.88
2019-05-16T03:30:15.741Z,16.88
2019-05-16T03:31:15.188Z,16.88
2019-05-16T03:32:14.144Z,16.88
2019-05-16T03:33:19.455Z,16.88
2019-05-16T03:34:16.231Z,16.88
2019-05-16T03:35:15.673Z,22.50
2019-05-16T03:36:14.985Z,22.50
2019-05-16T03:37:14.082Z,22.50
2019-05-16T03:38:12.425Z,22.50
2019-05-16T03:39:11.984Z,28.12
2019-05-16T03:40:11.986Z,33.75
2019-05-16T03:41:11.960Z,33.75
2019-05-16T03:42:12.779Z,33.75
2019-05-16T03:43:11.937Z,28.12
2019-05-16T03:44:11.929Z,28.12
2019-05-16T03:45:11.951Z,28.12
2019-05-16T03:46:12.199Z,28.12
2019-05-16T03:47:11.894Z,22.50
2019-05-16T03:48:12.257Z,22.50
2019-05-16T03:49:11.870Z,22.50
2019-05-16T03:50:11.863Z,16.88
2019-05-16T03:51:11.867Z,16.88
2019-05-16T03:52:11.839Z,16.88
2019-05-16T03:53:11.956Z,22.50
2019-05-16T03:54:12.685Z,22.50
2019-05-16T03:55:11.891Z,22.50
2019-05-16T03:56:11.803Z,22.50
2019-05-16T03:57:11.825Z,22.50
2019-05-16T03:58:11.950Z,22.50
2019-05-16T03:59:11.772Z,22.50
2019-05-16T04:00:12.384Z,22.50
2019-05-16T04:01:11.875Z,22.50
2019-05-16T04:02:11.730Z,22.50
2019-05-16T04:03:11.781Z,28.12
2019-05-16T04:04:12.237Z,39.38
2019-05-16T04:05:11.731Z,50.62
2019-05-16T04:06:12.252Z,61.88
2019-05-16T04:07:11.676Z,67.50
2019-05-16T04:08:19.421Z,73.12
2019-05-16T04:09:12.752Z,73.12
2019-05-16T04:10:11.638Z,73.12
2019-05-16T04:11:11.985Z,61.88
2019-05-16T04:12:11.630Z,67.50
2019-05-16T04:13:11.685Z,67.50
2019-05-16T04:14:11.595Z,67.50
2019-05-16T04:15:11.932Z,56.25
2019-05-16T04:16:12.156Z,56.25
2019-05-16T04:17:11.574Z,50.62
2019-05-16T04:18:11.551Z,39.38
2019-05-16T04:19:11.846Z,33.75
2019-05-16T04:20:12.102Z,39.38
2019-05-16T04:21:12.049Z,45.00
2019-05-16T04:22:11.511Z,45.00
2019-05-16T04:23:11.505Z,45.00
2019-05-16T04:24:12.313Z,56.25
2019-05-16T04:25:11.707Z,50.62
2019-05-16T04:26:11.579Z,45.00
2019-05-16T04:27:12.168Z,39.38
2019-05-16T04:28:11.694Z,33.75
2019-05-16T04:29:12.004Z,33.75
2019-05-16T04:30:12.106Z,33.75
2019-05-16T04:31:11.529Z,28.12
2019-05-16T04:32:11.395Z,28.12
2019-05-16T04:33:11.390Z,28.12
2019-05-16T04:34:11.832Z,22.50
2019-05-16T04:35:11.721Z,28.12
2019-05-16T04:36:21.309Z,28.12
2019-05-16T04:37:11.636Z,28.12
2019-05-16T04:38:21.922Z,33.75
2019-05-16T04:39:12.351Z,33.75
2019-05-16T04:40:12.419Z,28.12
2019-05-16T04:41:11.767Z,28.12
2019-05-16T04:42:11.295Z,28.12
2019-05-16T04:43:11.505Z,28.12
2019-05-16T04:44:11.933Z,28.12
2019-05-16T04:45:12.066Z,28.12
2019-05-16T04:46:11.845Z,33.75
2019-05-16T04:47:11.238Z,39.38
2019-05-16T04:48:11.442Z,39.38
2019-05-16T04:49:11.546Z,33.75
2019-05-16T04:50:11.891Z,33.75
2019-05-16T04:51:11.201Z,33.75
2019-05-16T04:52:11.582Z,33.75
2019-05-16T04:53:11.545Z,39.38
2019-05-16T04:54:11.678Z,39.38
2019-05-16T04:55:12.161Z,45.00
2019-05-16T04:56:11.224Z,45.00
2019-05-16T04:57:11.999Z,45.00
2019-05-16T04:58:11.116Z,50.62
2019-05-16T04:59:16.314Z,45.00
2019-05-16T05:00:12.138Z,45.00
2019-05-16T05:01:11.532Z,50.62
2019-05-16T05:02:12.359Z,45.00
2019-05-16T05:03:11.910Z,45.00
2019-05-16T05:04:15.175Z,45.00
2019-05-16T05:05:12.498Z,45.00
2019-05-16T05:06:11.429Z,50.62
2019-05-16T05:07:11.423Z,50.62
2019-05-16T05:08:11.007Z,50.62
2019-05-16T05:09:11.895Z,50.62
2019-05-16T05:10:11.620Z,50.62
2019-05-16T05:11:10.978Z,56.25
2019-05-16T05:12:11.571Z,61.88
2019-05-16T05:13:11.198Z,67.50
2019-05-16T05:14:10.939Z,73.12
2019-05-16T05:15:11.529Z,84.38
2019-05-16T05:16:10.928Z,73.12
2019-05-16T05:17:10.904Z,73.12
2019-05-16T05:18:10.898Z,67.50
2019-05-16T05:19:11.138Z,78.75
2019-05-16T05:20:11.221Z,78.75
2019-05-16T05:21:11.606Z,73.12
2019-05-16T05:22:10.849Z,78.75
2019-05-16T05:23:10.913Z,78.75
2019-05-16T05:24:11.139Z,84.38
2019-05-16T05:25:11.108Z,95.62
2019-05-16T05:26:10.972Z,101.25
2019-05-16T05:27:10.792Z,95.62
2019-05-16T05:28:13.474Z,112.50
2019-05-16T05:29:10.779Z,106.88
2019-05-16T05:30:10.904Z,123.75
2019-05-16T05:31:11.046Z,135.00
2019-05-16T05:32:14.271Z,146.25
2019-05-16T05:33:10.734Z,146.25
2019-05-16T05:34:10.873Z,151.88
2019-05-16T05:35:10.932Z,135.00
2019-05-16T05:36:12.290Z,151.88
2019-05-16T05:37:12.580Z,129.38
2019-05-16T05:38:10.678Z,140.62
2019-05-16T05:39:14.916Z,151.88
2019-05-16T05:40:10.887Z,151.88
2019-05-16T05:41:10.883Z,151.88
2019-05-16T05:42:10.666Z,174.38
2019-05-16T05:43:10.768Z,163.12
2019-05-16T05:44:10.949Z,151.88
2019-05-16T05:45:11.282Z,163.12
2019-05-16T05:46:11.325Z,151.88
2019-05-16T05:47:10.897Z,135.00
2019-05-16T05:48:10.851Z,151.88
2019-05-16T05:49:10.754Z,185.62
2019-05-16T05:50:11.201Z,196.88
2019-05-16T05:51:11.321Z,213.75
2019-05-16T05:52:12.396Z,236.25
2019-05-16T05:53:10.507Z,264.38
2019-05-16T05:54:10.985Z,253.12
2019-05-16T05:55:10.835Z,219.38
2019-05-16T05:56:11.474Z,219.38
2019-05-16T05:57:10.465Z,264.38
2019-05-16T05:58:10.461Z,281.25
2019-05-16T05:59:11.419Z,270.00
2019-05-16T06:00:10.469Z,270.00
2019-05-16T06:01:11.220Z,320.62
2019-05-16T06:02:11.348Z,281.25
2019-05-16T06:03:10.797Z,286.88
2019-05-16T06:04:10.701Z,286.88
2019-05-16T06:05:10.878Z,258.75
2019-05-16T06:06:10.713Z,258.75
2019-05-16T06:07:10.354Z,264.38
2019-05-16T06:08:10.748Z,264.38
2019-05-16T06:09:24.827Z,264.38
2019-05-16T06:10:11.343Z,253.12
2019-05-16T06:11:10.308Z,270.00
2019-05-16T06:12:10.597Z,247.50
2019-05-16T06:13:11.110Z,225.00
2019-05-16T06:14:10.277Z,225.00
2019-05-16T06:15:12.942Z,241.88
2019-05-16T06:16:10.813Z,219.38
2019-05-16T06:17:11.454Z,247.50
2019-05-16T06:18:10.841Z,264.38
2019-05-16T06:19:10.975Z,213.75
2019-05-16T06:20:14.639Z,191.25
2019-05-16T06:21:11.435Z,163.12
2019-05-16T06:22:10.359Z,180.00
2019-05-16T06:23:10.560Z,196.88
2019-05-16T06:24:10.767Z,219.38
2019-05-16T06:25:13.094Z,225.00
2019-05-16T06:26:12.116Z,196.88
2019-05-16T06:27:10.130Z,196.88
2019-05-16T06:28:10.558Z,185.62
2019-05-16T06:29:10.537Z,185.62
2019-05-16T06:30:11.386Z,208.12
2019-05-16T06:31:13.957Z,213.75
2019-05-16T06:32:10.362Z,230.62
2019-05-16T06:33:10.285Z,286.88
2019-05-16T06:34:15.071Z,281.25
2019-05-16T06:35:11.048Z,264.38
2019-05-16T06:36:11.043Z,253.12
2019-05-16T06:37:10.021Z,241.88
2019-05-16T06:38:10.167Z,236.25
2019-05-16T06:39:11.445Z,213.75
2019-05-16T06:40:10.923Z,213.75
2019-05-16T06:41:10.634Z,230.62
2019-05-16T06:42:10.018Z,241.88
2019-05-16T06:43:10.911Z,258.75
2019-05-16T06:44:10.698Z,236.25
2019-05-16T06:45:10.485Z,202.50
2019-05-16T06:46:10.972Z,219.38
2019-05-16T06:47:19.489Z,208.12
2019-05-16T06:48:10.899Z,202.50
2019-05-16T06:49:10.315Z,202.50
2019-05-16T06:50:11.459Z,196.88
2019-05-16T06:51:10.734Z,191.25
2019-05-16T06:52:10.415Z,225.00
2019-05-16T06:53:10.403Z,253.12
2019-05-16T06:54:10.247Z,253.12
2019-05-16T06:55:10.238Z,241.88
2019-05-16T06:56:10.494Z,258.75
2019-05-16T06:57:10.612Z,219.38
2019-05-16T06:58:10.586Z,213.75
2019-05-16T06:59:10.418Z,241.88
2019-05-16T07:00:10.928Z,247.50
2019-05-16T07:01:10.510Z,253.12
2019-05-16T07:02:12.254Z,253.12
2019-05-16T07:03:12.597Z,241.88
2019-05-16T07:04:10.485Z,225.00
2019-05-16T07:05:10.136Z,208.12
2019-05-16T07:06:18.023Z,208.12
2019-05-16T07:07:12.742Z,219.38
2019-05-16T07:08:10.432Z,236.25
2019-05-16T07:09:10.590Z,241.88
2019-05-16T07:10:10.018Z,230.62
2019-05-16T07:11:10.581Z,202.50
2019-05-16T07:12:10.519Z,247.50
2019-05-16T07:13:10.376Z,241.88
2019-05-16T07:14:10.586Z,213.75
2019-05-16T07:15:12.317Z,213.75
2019-05-16T07:16:09.791Z,219.38
2019-05-16T07:17:09.786Z,219.38
2019-05-16T07:18:12.925Z,230.62
2019-05-16T07:19:10.457Z,286.88
2019-05-16T07:20:10.367Z,315.00
2019-05-16T07:21:10.844Z,343.12
2019-05-16T07:22:11.072Z,315.00
2019-05-16T07:23:10.112Z,292.50
2019-05-16T07:24:10.866Z,365.62
2019-05-16T07:25:10.574Z,331.88
2019-05-16T07:26:09.952Z,326.25
2019-05-16T07:27:12.310Z,315.00
2019-05-16T07:28:10.264Z,320.62
2019-05-16T07:29:11.019Z,320.62
2019-05-16T07:30:10.620Z,320.62
2019-05-16T07:31:15.707Z,298.12
2019-05-16T07:32:12.476Z,303.75
2019-05-16T07:33:09.855Z,292.50
2019-05-16T07:34:10.419Z,258.75
2019-05-16T07:35:09.814Z,241.88
2019-05-16T07:36:09.903Z,225.00
2019-05-16T07:37:10.833Z,219.38
2019-05-16T07:38:10.682Z,241.88
2019-05-16T07:39:10.735Z,230.62
2019-05-16T07:40:19.290Z,225.00
2019-05-16T07:41:11.110Z,247.50
2019-05-16T07:42:11.115Z,236.25
2019-05-16T07:43:10.712Z,247.50
2019-05-16T07:44:10.770Z,253.12
2019-05-16T07:45:10.567Z,253.12
2019-05-16T07:46:11.116Z,247.50
2019-05-16T07:47:11.202Z,264.38
2019-05-16T07:48:10.734Z,264.38
2019-05-16T07:49:11.404Z,275.62
2019-05-16T07:50:10.376Z,343.12
2019-05-16T07:51:10.401Z,303.75
2019-05-16T07:52:09.941Z,286.88
2019-05-16T07:53:10.613Z,303.75
2019-05-16T07:54:10.513Z,303.75
2019-05-16T07:55:10.849Z,281.25
2019-05-16T07:56:10.582Z,275.62
2019-05-16T07:57:18.866Z,247.50
2019-05-16T07:58:13.100Z,219.38
2019-05-16T07:59:10.374Z,219.38
2019-05-16T08:00:09.669Z,236.25
2019-05-16T08:01:12.498Z,230.62
2019-05-16T08:02:11.001Z,196.88
2019-05-16T08:03:10.448Z,191.25
2019-05-16T08:04:10.600Z,196.88
2019-05-16T08:05:10.236Z,208.12
2019-05-16T08:06:10.952Z,196.88
2019-05-16T08:07:10.784Z,219.38
2019-05-16T08:08:10.503Z,219.38
2019-05-16T08:09:12.065Z,196.88
2019-05-16T08:10:10.569Z,225.00
2019-05-16T08:11:11.801Z,196.88
2019-05-16T08:12:10.553Z,174.38
2019-05-16T08:13:12.254Z,174.38
2019-05-16T08:14:10.176Z,208.12
2019-05-16T08:15:10.168Z,196.88
2019-05-16T08:16:10.234Z,180.00
2019-05-16T08:17:10.444Z,213.75
2019-05-16T08:18:11.117Z,213.75
2019-05-16T08:19:10.329Z,185.62
2019-05-16T08:20:10.978Z,191.25
2019-05-16T08:21:10.937Z,185.62
2019-05-16T08:22:10.784Z,180.00
2019-05-16T08:23:11.096Z,185.62
2019-05-16T08:24:14.495Z,196.88
2019-05-16T08:25:10.666Z,180.00
2019-05-16T08:26:10.360Z,191.25
2019-05-16T08:27:11.419Z,208.12
2019-05-16T08:28:11.735Z,219.38
2019-05-16T08:29:08.799Z,196.88
2019-05-16T08:30:11.054Z,213.75
2019-05-16T08:31:11.732Z,208.12
2019-05-16T08:32:11.474Z,196.88
2019-05-16T08:33:13.247Z,174.38
2019-05-16T08:34:11.709Z,174.38
2019-05-16T08:35:11.258Z,174.38
2019-05-16T08:37:33.109Z,202.50
2019-05-16T08:38:13.526Z,236.25
2019-05-16T08:39:11.046Z,270.00
2019-05-16T08:40:11.508Z,253.12
2019-05-16T08:41:14.389Z,219.38
2019-05-16T08:42:13.183Z,180.00
2019-05-16T08:43:11.552Z,191.25
2019-05-16T08:44:12.197Z,196.88
2019-05-16T08:45:11.982Z,191.25
2019-05-16T08:46:12.348Z,151.88
2019-05-16T08:47:11.839Z,146.25
2019-05-16T08:48:11.330Z,168.75
2019-05-16T08:49:11.987Z,196.88
2019-05-16T08:50:05.379Z,191.25
2019-05-16T08:50:13.678Z,230.62
2019-05-16T08:51:12.184Z,247.50
2019-05-16T08:52:11.462Z,292.50
2019-05-16T08:53:13.049Z,241.88
2019-05-16T08:54:13.327Z,196.88
2019-05-16T08:55:12.364Z,196.88
2019-05-16T08:56:12.400Z,247.50
2019-05-16T08:57:25.548Z,247.50
2019-05-16T08:58:13.575Z,241.88
2019-05-16T08:59:13.186Z,196.88
2019-05-16T09:00:14.758Z,180.00
2019-05-16T09:01:14.874Z,236.25
2019-05-16T09:02:12.538Z,365.62
2019-05-16T09:03:12.065Z,410.62
2019-05-16T09:04:11.696Z,337.50
2019-05-16T09:05:13.062Z,286.88
2019-05-16T09:06:11.767Z,286.88
2019-05-16T09:07:12.400Z,331.88
2019-05-16T09:08:08.410Z,348.75
2019-05-16T09:10:35.700Z,320.62
2019-05-16T09:10:42.908Z,292.50
2019-05-16T09:11:26.928Z,258.75
2019-05-16T09:12:09.327Z,275.62
2019-05-16T09:13:08.315Z,270.00
2019-05-16T09:14:08.314Z,298.12
2019-05-16T09:15:08.302Z,281.25
2019-05-16T09:16:08.283Z,241.88
2019-05-16T09:17:08.278Z,213.75
2019-05-16T09:18:08.260Z,253.12
2019-05-16T09:19:08.275Z,286.88
2019-05-16T09:20:08.250Z,264.38
2019-05-16T09:21:08.233Z,275.62
2019-05-16T09:22:08.217Z,286.88
2019-05-16T09:23:08.210Z,253.12
2019-05-16T09:24:08.200Z,264.38
2019-05-16T09:25:08.357Z,264.38
2019-05-16T09:26:08.173Z,270.00
2019-05-16T09:27:12.499Z,292.50
2019-05-16T09:28:08.160Z,286.88
2019-05-16T09:29:08.535Z,253.12
2019-05-16T09:30:08.204Z,264.38
2019-05-16T09:31:08.120Z,315.00
2019-05-16T09:32:16.580Z,320.62
2019-05-16T09:33:09.103Z,326.25
2019-05-16T09:34:08.094Z,298.12
2019-05-16T09:35:08.397Z,331.88
2019-05-16T09:36:08.302Z,365.62
2019-05-16T09:37:08.636Z,348.75
2019-05-16T09:38:08.045Z,337.50
2019-05-16T09:39:08.539Z,354.38
2019-05-16T09:40:08.030Z,309.38
2019-05-16T09:41:08.284Z,298.12
2019-05-16T09:42:08.362Z,315.00
2019-05-16T09:43:07.999Z,348.75
2019-05-16T09:44:08.745Z,376.88
2019-05-16T09:45:07.975Z,343.12
2019-05-16T09:46:08.027Z,286.88
2019-05-16T09:47:07.966Z,286.88
2019-05-16T09:48:08.304Z,286.88
2019-05-16T09:49:16.734Z,286.88
2019-05-16T09:50:08.912Z,286.88
2019-05-16T09:51:07.931Z,303.75
2019-05-16T09:52:07.893Z,337.50
2019-05-16T09:53:07.880Z,376.88
2019-05-16T09:54:07.871Z,348.75
2019-05-16T09:55:07.872Z,337.50
2019-05-16T09:56:07.848Z,360.00
2019-05-16T09:57:07.851Z,315.00
2019-05-16T09:58:07.826Z,309.38
2019-05-16T09:59:07.820Z,298.12
2019-05-16T10:00:07.812Z,275.62
2019-05-16T10:01:07.846Z,230.62
2019-05-16T10:02:08.032Z,174.38
2019-05-16T10:03:07.775Z,168.75
2019-05-16T10:04:07.772Z,180.00
2019-05-16T10:05:13.177Z,225.00
2019-05-16T10:06:08.767Z,258.75
2019-05-16T10:07:07.731Z,247.50
2019-05-16T10:08:07.723Z,225.00
2019-05-16T10:09:07.713Z,230.62
2019-05-16T10:10:07.710Z,241.88
2019-05-16T10:11:07.686Z,303.75
2019-05-16T10:12:15.005Z,309.38
2019-05-16T10:13:08.673Z,354.38
2019-05-16T10:14:07.660Z,388.12
2019-05-16T10:15:07.752Z,410.62
2019-05-16T10:16:07.639Z,399.38
2019-05-16T10:17:08.192Z,416.25
2019-05-16T10:18:07.721Z,472.50
2019-05-16T10:19:07.630Z,455.62
2019-05-16T10:20:08.022Z,500.62
2019-05-16T10:21:08.239Z,568.12
2019-05-16T10:22:07.589Z,680.62
2019-05-16T10:23:14.341Z,742.50
2019-05-16T10:24:08.545Z,731.25
2019-05-16T10:25:07.536Z,793.12
2019-05-16T10:26:07.529Z,781.88
2019-05-16T10:27:07.522Z,838.12
2019-05-16T10:28:07.502Z,911.25
2019-05-16T10:29:10.874Z,877.50
2019-05-16T10:30:08.443Z,961.88
2019-05-16T10:31:07.474Z,1035.00
2019-05-16T10:32:07.728Z,961.88
2019-05-16T10:33:07.455Z,967.50
2019-05-16T10:34:08.024Z,843.75
2019-05-16T10:35:08.003Z,793.12
2019-05-16T10:36:17.164Z,731.25
2019-05-16T10:37:08.410Z,703.12
2019-05-16T10:38:07.410Z,720.00
2019-05-16T10:39:07.778Z,658.12
2019-05-16T10:40:07.521Z,607.50
2019-05-16T10:41:07.503Z,478.12
2019-05-16T10:42:22.016Z,500.62
2019-05-16T10:43:08.344Z,472.50
2019-05-16T10:44:07.333Z,461.25
2019-05-16T10:45:08.687Z,438.75
2019-05-16T10:46:07.303Z,450.00
2019-05-16T10:47:07.673Z,483.75
2019-05-16T10:48:07.282Z,489.38
2019-05-16T10:49:07.280Z,388.12
2019-05-16T10:50:07.265Z,405.00
2019-05-16T10:51:07.722Z,450.00
2019-05-16T10:52:07.396Z,461.25
2019-05-16T10:53:27.826Z,495.00
2019-05-16T10:54:13.555Z,540.00
2019-05-16T10:55:08.495Z,635.62
2019-05-16T10:56:07.874Z,528.75
2019-05-16T10:57:08.134Z,613.12
2019-05-16T10:58:07.490Z,601.88
2019-05-16T10:59:48.774Z,511.88
2019-05-16T11:00:16.347Z,450.00
2019-05-16T11:01:22.505Z,455.62
2019-05-16T11:02:08.186Z,556.88
2019-05-16T11:03:07.177Z,523.12
2019-05-16T11:04:07.557Z,517.50
2019-05-16T11:05:22.546Z,545.62
2019-05-16T11:06:17.438Z,489.38
2019-05-16T11:07:08.072Z,433.12
2019-05-16T11:08:08.152Z,438.75
2019-05-16T11:09:07.086Z,410.62
2019-05-16T11:10:07.325Z,427.50
2019-05-16T11:11:07.029Z,461.25
2019-05-16T11:12:07.020Z,466.88
2019-05-16T11:13:08.089Z,500.62
2019-05-16T11:14:09.235Z,472.50
2019-05-16T11:15:07.871Z,455.62
2019-05-16T11:16:09.412Z,483.75
2019-05-16T11:17:12.617Z,506.25
2019-05-16T11:18:07.947Z,444.38
2019-05-16T11:19:17.216Z,495.00
2019-05-16T11:20:08.033Z,489.38
2019-05-16T11:21:06.920Z,444.38
2019-05-16T11:22:06.907Z,495.00
2019-05-16T11:23:07.910Z,568.12
2019-05-16T11:24:12.877Z,540.00
2019-05-16T11:25:21.096Z,444.38
2019-05-16T11:26:07.891Z,416.25
2019-05-16T11:27:07.472Z,506.25
2019-05-16T11:28:07.459Z,450.00
2019-05-16T11:29:07.448Z,455.62
2019-05-16T11:30:07.544Z,478.12
2019-05-16T11:31:07.677Z,495.00
2019-05-16T11:32:07.117Z,461.25
2019-05-16T11:33:07.588Z,455.62
2019-05-16T11:34:06.773Z,466.88
2019-05-16T11:35:07.336Z,534.38
2019-05-16T11:36:08.122Z,568.12
2019-05-16T11:37:07.136Z,697.50
2019-05-16T11:38:07.252Z,697.50
2019-05-16T11:39:08.538Z,759.38
2019-05-16T11:40:06.867Z,793.12
2019-05-16T11:41:07.354Z,810.00
2019-05-16T11:42:08.086Z,871.88
2019-05-16T11:43:15.982Z,939.38
2019-05-16T11:44:07.666Z,984.38
2019-05-16T11:45:09.224Z,1068.75
2019-05-16T11:46:06.645Z,1102.50
2019-05-16T11:47:08.291Z,1012.50
2019-05-16T11:48:06.632Z,911.25
2019-05-16T11:49:06.611Z,877.50
2019-05-16T11:50:07.394Z,1080.00
2019-05-16T11:51:07.187Z,1119.38
2019-05-16T11:52:07.518Z,1057.50
2019-05-16T11:53:07.318Z,995.62
2019-05-16T11:54:06.986Z,883.12
2019-05-16T11:55:07.375Z,855.00
2019-05-16T11:56:08.409Z,815.62
2019-05-16T11:57:07.057Z,748.12
2019-05-16T11:58:06.894Z,624.38
2019-05-16T11:59:07.847Z,517.50
2019-05-16T12:00:07.941Z,438.75
2019-05-16T12:01:07.565Z,421.88
2019-05-16T12:02:06.476Z,410.62
2019-05-16T12:03:06.458Z,393.75
2019-05-16T12:04:07.919Z,461.25
2019-05-16T12:05:06.440Z,545.62
2019-05-16T12:06:10.261Z,478.12
2019-05-16T12:07:07.643Z,438.75
2019-05-16T12:08:07.621Z,545.62
2019-05-16T12:09:06.800Z,540.00
2019-05-16T12:10:07.601Z,478.12
2019-05-16T12:11:06.962Z,450.00
2019-05-16T12:12:08.726Z,495.00
2019-05-16T12:13:07.602Z,506.25
2019-05-16T12:14:07.604Z,556.88
2019-05-16T12:15:07.955Z,590.62
2019-05-16T12:16:07.646Z,697.50
2019-05-16T12:17:07.404Z,708.75
2019-05-16T12:18:08.587Z,725.62
2019-05-16T12:19:07.024Z,742.50
2019-05-16T12:20:07.799Z,736.88
2019-05-16T12:21:07.583Z,658.12
2019-05-16T12:22:07.072Z,556.88
2019-05-16T12:23:08.023Z,641.25
2019-05-16T12:24:07.418Z,669.38
2019-05-16T12:25:08.174Z,596.25
2019-05-16T12:26:07.722Z,573.75
2019-05-16T12:27:08.208Z,523.12
2019-05-16T12:28:08.203Z,500.62
2019-05-16T12:29:07.007Z,528.75
2019-05-16T12:30:13.003Z,534.38
2019-05-16T12:31:07.439Z,466.88
2019-05-16T12:32:07.733Z,455.62
2019-05-16T12:33:07.334Z,489.38
2019-05-16T12:34:09.706Z,511.88
2019-05-16T12:35:06.586Z,478.12
2019-05-16T12:36:07.404Z,506.25
2019-05-16T12:37:07.475Z,540.00
2019-05-16T12:38:08.186Z,483.75
2019-05-16T12:39:07.864Z,455.62
2019-05-16T12:40:06.043Z,438.75
2019-05-16T12:41:07.190Z,376.88
2019-05-16T12:42:08.525Z,343.12
2019-05-16T12:43:07.862Z,337.50
2019-05-16T12:44:07.581Z,388.12